Time;durP1;ratioP1;P1;durP2;ratioP2;P2;SDS_P1;SDS_P2;PMS_P1;PMS_P2;Temp;Humidity;BMP_temperature;BMP_pressure;BME280_temperature;BME280_humidity;BME280_pressure;Samples;Min_cycle;Max_cycle;Signal;HPM_P1;HPM_P2
2021/03/09 00:00:33;;;;;;;9.10;4.63;;;-2.70;67.00;;;;;;5036763;28;20029;-85
2021/03/09 00:02:59;;;;;;;8.02;3.85;;;-2.70;67.10;;;;;;5036391;28;20419;-85
2021/03/09 00:05:26;;;;;;;7.88;3.40;;;-2.80;67.40;;;;;;5035536;28;20091;-85
2021/03/09 00:07:52;;;;;;;8.63;3.75;;;-2.80;67.00;;;;;;5035435;28;20033;-85
2021/03/09 00:10:17;;;;;;;8.63;3.92;;;-2.80;67.50;;;;;;5035413;28;20030;-85
2021/03/09 00:12:43;;;;;;;5.22;3.08;;;-2.80;67.10;;;;;;5035271;28;20087;-85
2021/03/09 00:15:10;;;;;;;5.63;3.35;;;-2.80;67.40;;;;;;5036804;28;20045;-85
2021/03/09 00:17:35;;;;;;;4.30;3.53;;;-2.90;67.30;;;;;;5035031;28;20392;-85
2021/03/09 00:20:03;;;;;;;5.88;3.35;;;-2.90;67.50;;;;;;5036564;28;20037;-85
2021/03/09 00:22:29;;;;;;;7.60;3.35;;;-2.90;67.60;;;;;;5035116;28;20380;-85
2021/03/09 00:24:55;;;;;;;5.50;3.58;;;-2.90;67.60;;;;;;5035085;28;20030;-85
2021/03/09 00:27:21;;;;;;;8.77;4.30;;;-2.90;67.70;;;;;;5035031;28;20030;-85
2021/03/09 00:29:46;;;;;;;5.72;3.95;;;-3.00;67.70;;;;;;5034938;28;20044;-85
2021/03/09 00:32:12;;;;;;;9.70;4.07;;;-3.00;67.70;;;;;;5034824;28;20025;-85
2021/03/09 00:34:38;;;;;;;5.40;3.70;;;-3.00;67.90;;;;;;5036041;28;20028;-85
2021/03/09 00:37:05;;;;;;;5.70;3.83;;;-3.00;68.10;;;;;;5035806;28;20445;-85
2021/03/09 00:39:32;;;;;;;8.48;4.80;;;-3.00;67.90;;;;;;5034813;28;20021;-85
2021/03/09 00:41:58;;;;;;;7.43;4.57;;;-3.10;68.50;;;;;;5035931;28;20120;-85
2021/03/09 00:44:24;;;;;;;9.85;4.53;;;-3.10;68.40;;;;;;5035814;28;20102;-85
2021/03/09 00:46:50;;;;;;;5.70;4.05;;;-3.10;68.50;;;;;;5034524;28;20064;-85
2021/03/09 00:49:16;;;;;;;9.98;5.80;;;-3.20;68.20;;;;;;5034722;28;20414;-85
2021/03/09 00:51:42;;;;;;;6.03;3.78;;;-3.20;68.40;;;;;;5034744;28;20032;-85
2021/03/09 00:54:07;;;;;;;11.27;4.63;;;-3.20;68.30;;;;;;5035804;28;20033;-85
2021/03/09 00:56:33;;;;;;;6.20;4.03;;;-3.20;68.00;;;;;;5036098;28;20030;-85
2021/03/09 00:58:59;;;;;;;7.60;4.47;;;-3.20;68.10;;;;;;5034373;28;20091;-85
2021/03/09 01:01:25;;;;;;;7.50;4.15;;;-3.30;68.20;;;;;;5034573;28;20028;-85
2021/03/09 01:03:50;;;;;;;6.15;4.07;;;-3.30;68.00;;;;;;5035343;28;20041;-85
2021/03/09 01:06:16;;;;;;;6.28;4.13;;;-3.30;68.30;;;;;;5034618;28;20057;-85
2021/03/09 01:08:42;;;;;;;7.15;3.75;;;-3.30;68.90;;;;;;5035750;28;20447;-85
2021/03/09 01:11:07;;;;;;;5.13;3.47;;;-3.30;68.20;;;;;;5034133;28;20029;-84
2021/03/09 01:13:33;;;;;;;8.85;4.57;;;-3.30;68.00;;;;;;5033809;28;20053;-85
2021/03/09 01:15:59;;;;;;;7.60;4.20;;;-3.30;68.40;;;;;;5034229;28;20084;-85
2021/03/09 01:18:24;;;;;;;9.40;5.18;;;-3.40;68.30;;;;;;5034185;28;20057;-85
2021/03/09 01:20:50;;;;;;;9.48;4.60;;;-3.40;68.40;;;;;;5034090;28;20036;-85
2021/03/09 01:23:16;;;;;;;7.95;3.92;;;-3.40;68.60;;;;;;5033922;28;20035;-85
2021/03/09 01:25:42;;;;;;;7.32;4.78;;;-3.40;68.70;;;;;;5033970;28;20127;-85
2021/03/09 01:28:09;;;;;;;7.68;3.85;;;-3.40;68.60;;;;;;5033788;28;20120;-85
2021/03/09 01:30:35;;;;;;;6.25;3.47;;;-3.40;68.40;;;;;;5034066;28;20025;-85
2021/03/09 01:33:01;;;;;;;8.80;3.78;;;-3.50;68.30;;;;;;5035203;28;20029;-84
2021/03/09 01:35:27;;;;;;;6.43;4.10;;;-3.50;68.40;;;;;;5033915;28;20025;-85
2021/03/09 01:37:52;;;;;;;6.25;3.90;;;-3.50;68.30;;;;;;5033728;28;20091;-85
2021/03/09 01:40:19;;;;;;;6.90;3.47;;;-3.50;68.60;;;;;;5034868;28;20468;-85
2021/03/09 01:42:45;;;;;;;7.05;3.50;;;-3.50;68.60;;;;;;5033662;28;20110;-85
2021/03/09 01:45:11;;;;;;;4.72;3.33;;;-3.40;68.30;;;;;;5034977;28;20079;-85
2021/03/09 01:47:42;;;;;;;5.60;3.47;;;-3.40;68.30;;;;;;5034063;28;20022;-85
2021/03/09 01:50:10;;;;;;;4.38;3.35;;;-3.30;68.00;;;;;;5035091;28;20029;-85
2021/03/09 01:52:36;;;;;;;4.60;3.40;;;-3.30;67.80;;;;;;5033667;28;20029;-85
2021/03/09 01:55:04;;;;;;;8.48;3.28;;;-3.30;67.60;;;;;;5033367;28;20120;-85
2021/03/09 01:57:30;;;;;;;6.32;3.30;;;-3.30;67.50;;;;;;5033060;28;20541;-84
2021/03/09 01:59:56;;;;;;;4.55;3.10;;;-3.30;67.50;;;;;;5034717;28;20029;-85
2021/03/09 02:02:23;;;;;;;8.70;3.85;;;-3.40;67.20;;;;;;5033202;28;20124;-85
2021/03/09 02:04:48;;;;;;;6.10;4.18;;;-3.30;67.20;;;;;;5033382;28;20553;-84
2021/03/09 02:07:14;;;;;;;5.95;3.58;;;-3.30;67.40;;;;;;5033159;28;20025;-85
2021/03/09 02:09:40;;;;;;;4.97;3.20;;;-3.40;67.30;;;;;;5034426;28;20032;-85
2021/03/09 02:12:28;;;;;;;6.07;3.15;;;-3.40;67.30;;;;;;5034127;28;20104;-85
2021/03/09 02:15:13;;;;;;;5.30;3.28;;;-3.40;67.30;;;;;;5034582;28;20056;-85
2021/03/09 02:17:42;;;;;;;6.78;3.65;;;-3.40;67.10;;;;;;5032991;28;20033;-85
2021/03/09 02:20:29;;;;;;;5.28;3.60;;;-3.40;67.00;;;;;;5034441;28;20025;-85
2021/03/09 02:23:18;;;;;;;4.78;3.22;;;-3.40;66.80;;;;;;5033117;28;20033;-85
2021/03/09 02:26:21;;;;;;;5.25;3.20;;;-3.40;66.80;;;;;;5034088;28;20384;-85
2021/03/09 02:29:24;;;;;;;5.35;3.47;;;-3.40;66.90;;;;;;5033925;28;20022;-85
2021/03/09 02:31:53;;;;;;;4.70;3.50;;;-3.50;67.00;;;;;;5032811;28;20442;-85
2021/03/09 02:34:35;;;;;;;6.50;3.83;;;-3.50;67.00;;;;;;5032654;28;20472;-85
2021/03/09 02:37:05;;;;;;;11.02;4.40;;;-3.60;67.30;;;;;;5033843;28;20022;-85
2021/03/09 02:39:32;;;;;;;4.90;3.50;;;-3.60;67.60;;;;;;5033040;28;20547;-85
2021/03/09 02:42:03;;;;;;;7.43;4.53;;;-3.60;67.30;;;;;;5032682;28;20025;-84
2021/03/09 02:44:31;;;;;;;6.28;4.13;;;-3.60;67.40;;;;;;5032537;28;20033;-85
2021/03/09 02:46:58;;;;;;;4.32;3.45;;;-3.60;67.50;;;;;;5032698;28;20064;-85
2021/03/09 02:49:27;;;;;;;9.05;4.43;;;-3.70;67.40;;;;;;5033524;28;20036;-85
2021/03/09 02:51:53;;;;;;;4.65;3.30;;;-3.70;67.60;;;;;;5032577;28;20542;-85
2021/03/09 02:54:22;;;;;;;7.57;4.13;;;-3.70;67.70;;;;;;5032444;28;20084;-85
2021/03/09 02:56:49;;;;;;;5.85;4.20;;;-3.70;68.00;;;;;;5032542;28;20036;-85
2021/03/09 02:59:17;;;;;;;5.25;3.47;;;-3.80;68.00;;;;;;5033505;28;20025;-85
2021/03/09 03:01:46;;;;;;;9.70;4.55;;;-3.80;68.30;;;;;;5031175;28;20037;-85
2021/03/09 03:04:15;;;;;;;5.93;3.40;;;-3.80;68.10;;;;;;5033022;28;20399;-85
2021/03/09 03:06:42;;;;;;;6.25;3.70;;;-3.80;68.20;;;;;;5033672;28;20033;-85
2021/03/09 03:09:08;;;;;;;6.90;3.75;;;-3.80;67.60;;;;;;5043421;28;20025;-85
2021/03/09 03:11:34;;;;;;;5.15;3.53;;;-3.80;68.10;;;;;;5053531;28;20033;-85
2021/03/09 03:14:06;;;;;;;4.38;3.35;;;-3.80;68.00;;;;;;5052003;28;20099;-85
2021/03/09 03:16:34;;;;;;;4.90;3.90;;;-3.80;68.10;;;;;;5051911;28;20025;-85
2021/03/09 03:19:02;;;;;;;8.00;3.10;;;-3.90;68.00;;;;;;5053757;28;20028;-85
2021/03/09 03:21:29;;;;;;;4.55;3.42;;;-3.80;68.10;;;;;;5053654;28;20021;-85
2021/03/09 03:24:00;;;;;;;4.35;3.25;;;-3.80;68.40;;;;;;5053403;28;20029;-85
2021/03/09 03:26:27;;;;;;;6.25;3.20;;;-3.80;68.50;;;;;;5053392;28;20372;-85
2021/03/09 03:28:55;;;;;;;5.22;3.83;;;-3.70;68.40;;;;;;5053177;28;20032;-85
2021/03/09 03:31:21;;;;;;;6.78;4.47;;;-3.60;68.60;;;;;;5053180;28;20032;-85
2021/03/09 03:33:48;;;;;;;6.72;4.38;;;-3.60;68.50;;;;;;5052149;28;20116;-85
2021/03/09 03:36:14;;;;;;;6.00;3.92;;;-3.50;68.40;;;;;;5052019;28;20029;-85
2021/03/09 03:38:41;;;;;;;4.82;3.67;;;-3.40;68.20;;;;;;5051978;28;20071;-85
2021/03/09 03:41:09;;;;;;;5.63;3.70;;;-3.30;68.00;;;;;;5051917;28;20025;-85
2021/03/09 03:43:35;;;;;;;7.25;3.67;;;-3.30;67.90;;;;;;5053054;28;20103;-85
2021/03/09 03:46:01;;;;;;;4.50;4.07;;;-3.20;67.70;;;;;;5052052;28;20068;-85
2021/03/09 03:48:32;;;;;;;5.10;3.35;;;-3.20;67.50;;;;;;5053519;28;20091;-85
2021/03/09 03:51:00;;;;;;;5.82;3.45;;;-3.10;67.40;;;;;;5053127;28;20083;-85
2021/03/09 03:53:47;;;;;;;6.88;3.55;;;-3.00;67.40;;;;;;5053334;28;20036;-85
2021/03/09 03:56:41;;;;;;;4.55;3.42;;;-3.00;67.10;;;;;;5051765;28;20049;-85
2021/03/09 03:59:38;;;;;;;5.10;3.07;;;-2.90;67.00;;;;;;5051692;28;20021;-85
2021/03/09 04:02:06;;;;;;;5.45;3.08;;;-2.90;66.80;;;;;;5051093;28;20262;-85
2021/03/09 04:04:34;;;;;;;7.50;3.90;;;-2.90;66.80;;;;;;5051301;28;20068;-85
2021/03/09 04:07:01;;;;;;;5.10;3.72;;;-2.80;66.80;;;;;;5051775;28;20048;-84
2021/03/09 04:09:27;;;;;;;6.97;4.07;;;-2.80;66.60;;;;;;5051750;28;20562;-85
2021/03/09 04:11:56;;;;;;;6.57;3.83;;;-2.80;66.60;;;;;;5055877;28;20107;-85
2021/03/09 04:14:23;;;;;;;8.48;4.03;;;-2.70;66.60;;;;;;5056225;28;20107;-85
2021/03/09 04:16:52;;;;;;;6.15;3.75;;;-2.70;66.60;;;;;;5055133;28;20094;-85
2021/03/09 04:19:19;;;;;;;5.63;3.85;;;-2.70;66.60;;;;;;5056403;28;20025;-85
2021/03/09 04:21:46;;;;;;;5.88;3.78;;;-2.70;66.60;;;;;;5056468;28;20036;-85
2021/03/09 04:24:13;;;;;;;5.18;3.97;;;-2.70;66.60;;;;;;5055059;28;20097;-85
2021/03/09 04:26:41;;;;;;;6.13;3.63;;;-2.60;66.60;;;;;;5056100;28;20058;-85
2021/03/09 04:29:11;;;;;;;4.55;3.72;;;-2.60;66.50;;;;;;5056162;28;20021;-85
2021/03/09 04:31:38;;;;;;;5.95;3.65;;;-2.60;66.50;;;;;;5054789;28;20380;-85
2021/03/09 04:34:05;;;;;;;7.88;3.95;;;-2.60;66.40;;;;;;5054937;28;20029;-85
2021/03/09 04:36:33;;;;;;;5.22;3.80;;;-2.50;66.40;;;;;;5054849;28;20036;-85
2021/03/09 04:39:00;;;;;;;6.20;3.83;;;-2.50;66.40;;;;;;5054613;28;20055;-85
2021/03/09 04:41:26;;;;;;;6.28;4.15;;;-2.50;66.30;;;;;;5054961;28;20083;-85
2021/03/09 04:43:52;;;;;;;5.43;3.40;;;-2.50;66.40;;;;;;5054623;28;20064;-85
2021/03/09 04:46:21;;;;;;;8.38;3.85;;;-2.50;66.30;;;;;;5055670;28;20040;-85
2021/03/09 04:48:47;;;;;;;5.57;3.75;;;-2.40;66.30;;;;;;5055857;28;20021;-85
2021/03/09 04:51:15;;;;;;;7.15;4.10;;;-2.40;66.30;;;;;;5054798;28;20427;-85
2021/03/09 04:53:42;;;;;;;6.13;4.25;;;-2.40;66.30;;;;;;5055969;28;20039;-85
2021/03/09 04:56:08;;;;;;;8.48;3.05;;;-2.40;66.20;;;;;;5055643;28;20518;-85
2021/03/09 04:58:35;;;;;;;3.45;3.00;;;-2.40;66.10;;;;;;5055512;28;20029;-85
2021/03/09 05:01:01;;;;;;;8.05;4.00;;;-2.30;66.10;;;;;;5054442;28;20040;-85
2021/03/09 05:03:27;;;;;;;6.50;4.10;;;-2.30;66.10;;;;;;5055464;28;20041;-85
2021/03/09 05:05:54;;;;;;;5.93;3.35;;;-2.30;66.10;;;;;;5055355;28;20071;-85
2021/03/09 05:08:20;;;;;;;5.30;3.50;;;-2.30;66.00;;;;;;5055468;28;20021;-85
2021/03/09 05:10:46;;;;;;;5.30;3.47;;;-2.30;66.50;;;;;;5055222;28;20025;-85
2021/03/09 05:13:13;;;;;;;5.40;3.13;;;-2.30;65.90;;;;;;5055345;28;20084;-85
2021/03/09 05:15:39;;;;;;;5.43;3.67;;;-2.20;65.90;;;;;;5055305;28;20452;-85
2021/03/09 05:18:05;;;;;;;5.03;3.47;;;-2.20;65.90;;;;;;5055477;28;20028;-84
2021/03/09 05:20:31;;;;;;;6.50;3.97;;;-2.20;65.80;;;;;;5055152;28;20524;-84
2021/03/09 05:22:57;;;;;;;5.00;3.75;;;-2.10;65.80;;;;;;5043224;28;20070;-84
2021/03/09 05:25:22;;;;;;;6.03;4.63;;;-2.00;65.70;;;;;;5033657;28;20492;-85
2021/03/09 05:27:48;;;;;;;6.60;4.45;;;-2.00;65.40;;;;;;5033391;28;20029;-85
2021/03/09 05:30:16;;;;;;;9.50;5.18;;;-1.90;65.20;;;;;;5034015;28;20031;-85
2021/03/09 05:32:43;;;;;;;6.50;3.97;;;-1.90;65.10;;;;;;5034990;28;20111;-85
2021/03/09 05:35:10;;;;;;;8.77;4.50;;;-1.90;65.20;;;;;;5053333;28;20033;-85
2021/03/09 05:37:35;;;;;;;6.35;4.30;;;-1.80;65.30;;;;;;5053404;28;20387;-84
2021/03/09 05:40:02;;;;;;;11.00;4.20;;;-1.80;65.20;;;;;;5053239;28;20025;-84
2021/03/09 05:42:28;;;;;;;7.88;4.82;;;-1.70;65.20;;;;;;5040764;28;20020;-84
2021/03/09 05:44:53;;;;;;;5.88;3.90;;;-1.70;65.00;;;;;;5033684;28;20026;-84
2021/03/09 05:47:22;;;;;;;7.00;4.60;;;-1.60;64.80;;;;;;5032934;28;20395;-86
2021/03/09 05:49:48;;;;;;;9.23;5.07;;;-1.60;64.80;;;;;;5033137;28;20048;-86
2021/03/09 05:52:18;;;;;;;8.32;4.85;;;-1.50;64.70;;;;;;5032147;28;20152;-85
2021/03/09 05:54:44;;;;;;;7.20;4.60;;;-1.50;64.60;;;;;;5033960;28;20026;-85
2021/03/09 05:57:10;;;;;;;12.13;6.07;;;-1.40;64.30;;;;;;5032566;28;20021;-85
2021/03/09 05:59:36;;;;;;;7.97;5.60;;;-1.30;64.20;;;;;;5032892;28;20076;-85
2021/03/09 06:02:03;;;;;;;8.93;6.55;;;-1.30;64.00;;;;;;5032889;28;20017;-85
2021/03/09 06:04:33;;;;;;;13.52;8.05;;;-1.30;63.80;;;;;;5032629;28;20049;-84
2021/03/09 06:06:59;;;;;;;11.90;6.82;;;-1.20;63.50;;;;;;5033868;28;20021;-85
2021/03/09 06:09:33;;;;;;;9.30;6.18;;;-1.20;63.30;;;;;;5033807;28;20381;-85
2021/03/09 06:12:28;;;;;;;8.13;5.20;;;-1.20;63.10;;;;;;5033914;28;20459;-84
2021/03/09 06:15:00;;;;;;;;;;;-1.20;63.20;;;;;;5033625;28;20497;-85
2021/03/09 06:17:38;;;;;;;6.80;4.10;;;-1.20;62.50;;;;;;5032456;28;19901;-85
2021/03/09 06:20:25;;;;;;;7.75;4.78;;;-1.10;62.60;;;;;;5032146;28;20518;-84
2021/03/09 06:23:01;;;;;;;9.57;4.82;;;-1.10;62.70;;;;;;5033715;28;20371;-84
2021/03/09 06:25:33;;;;;;;7.63;4.53;;;-1.10;62.70;;;;;;5031741;28;20051;-84
2021/03/09 06:28:07;;;;;;;9.38;4.47;;;-1.10;62.50;;;;;;5032091;28;20057;-84
2021/03/09 06:30:34;;;;;;;10.02;4.95;;;-1.00;62.70;;;;;;5033637;28;20021;-84
2021/03/09 06:33:02;;;;;;;4.90;3.50;;;-1.00;62.30;;;;;;5031724;28;20454;-84
2021/03/09 06:35:48;;;;;;;5.85;4.07;;;-0.90;62.50;;;;;;5031820;28;20029;-84
2021/03/09 06:38:26;;;;;;;3.50;3.10;;;-0.90;61.60;;;;;;5031819;28;20029;-84
2021/03/09 06:41:18;;;;;;;7.30;4.07;;;-0.90;61.70;;;;;;5031347;28;20075;-84
2021/03/09 06:44:05;;;;;;;7.05;4.80;;;-0.80;61.50;;;;;;5031771;28;20040;-84
2021/03/09 06:46:44;;;;;;;5.72;4.15;;;-0.80;61.50;;;;;;5031586;28;20049;-84
2021/03/09 06:49:10;;;;;;;4.45;3.63;;;-0.70;61.50;;;;;;5032788;28;20053;-84
2021/03/09 06:51:37;;;;;;;5.15;3.60;;;-0.70;60.60;;;;;;5033296;28;20103;-84
2021/03/09 06:54:10;;;;;;;5.93;4.28;;;-0.70;60.70;;;;;;5031652;28;20036;-84
2021/03/09 06:56:39;;;;;;;4.72;3.63;;;-0.70;60.60;;;;;;5031551;28;20470;-84
2021/03/09 06:59:32;;;;;;;8.20;4.20;;;-0.60;60.30;;;;;;5031494;28;20021;-84
2021/03/09 07:02:09;;;;;;;5.65;4.00;;;-0.50;59.50;;;;;;5031372;28;20025;-84
2021/03/09 07:04:38;;;;;;;6.10;4.28;;;-0.50;59.90;;;;;;5031605;28;20026;-84
2021/03/09 07:07:04;;;;;;;6.25;4.18;;;-0.40;60.10;;;;;;5031279;28;20021;-84
2021/03/09 07:09:31;;;;;;;4.20;3.63;;;-0.40;59.40;;;;;;5031293;28;20018;-84
2021/03/09 07:11:58;;;;;;;8.43;4.20;;;-0.50;59.30;;;;;;5032144;28;20032;-84
2021/03/09 07:14:24;;;;;;;4.65;3.65;;;-0.50;59.60;;;;;;5032776;28;20049;-84
2021/03/09 07:16:52;;;;;;;4.93;3.10;;;-0.40;57.40;;;;;;5031513;28;20364;-84
2021/03/09 07:19:42;;;;;;;6.38;3.70;;;-0.50;57.60;;;;;;5030865;28;20099;-84
2021/03/09 07:22:10;;;;;;;6.68;4.47;;;-0.50;57.40;;;;;;5031433;28;20071;-84
2021/03/09 07:24:49;;;;;;;5.97;3.33;;;-0.50;57.80;;;;;;5031466;28;20026;-84
2021/03/09 07:27:25;;;;;;;8.52;4.82;;;-0.40;58.40;;;;;;5031218;28;20112;-84
2021/03/09 07:29:56;;;;;;;9.95;5.20;;;-0.40;58.10;;;;;;5030916;28;20025;-84
2021/03/09 07:32:26;;;;;;;6.97;4.53;;;-0.40;58.00;;;;;;5031776;28;20024;-84
2021/03/09 07:34:52;;;;;;;8.55;4.90;;;-0.30;58.00;;;;;;5031152;28;20353;-84
2021/03/09 07:37:18;;;;;;;5.47;3.60;;;-0.30;58.00;;;;;;5031166;28;20017;-84
2021/03/09 07:39:44;;;;;;;18.65;4.20;;;-0.40;57.60;;;;;;5032403;28;20022;-84
2021/03/09 07:42:10;;;;;;;7.68;3.15;;;-0.40;57.40;;;;;;5031545;28;20024;-84
2021/03/09 07:44:38;;;;;;;4.53;3.10;;;-0.50;56.80;;;;;;5032388;28;20030;-84
2021/03/09 07:47:07;;;;;;;5.65;3.13;;;-0.50;57.40;;;;;;5034452;28;20063;-85
2021/03/09 07:49:35;;;;;;;5.25;3.15;;;-0.50;57.40;;;;;;5036025;28;20024;-84
2021/03/09 07:52:18;;;;;;;7.55;4.03;;;-0.60;57.40;;;;;;5034846;28;20156;-84
2021/03/09 07:55:02;;;;;;;4.30;3.33;;;-0.70;57.20;;;;;;5035100;28;20075;-84
2021/03/09 07:57:29;;;;;;;4.03;3.60;;;-0.90;57.20;;;;;;5035583;28;20367;-85
2021/03/09 08:00:00;;;;;;;4.45;3.55;;;-1.00;58.30;;;;;;5035045;28;20440;-85
2021/03/09 08:02:42;;;;;;;6.90;3.55;;;-0.90;58.50;;;;;;5034981;28;20029;-85
2021/03/09 08:05:14;;;;;;;5.40;3.13;;;-1.00;59.80;;;;;;5034543;28;20045;-85
2021/03/09 08:07:51;;;;;;;4.05;3.53;;;-1.00;60.00;;;;;;5032186;28;20030;-86
2021/03/09 08:10:29;;;;;;;4.75;3.97;;;-1.00;60.40;;;;;;5033234;28;20026;-85
2021/03/09 08:13:18;;;;;;;5.90;4.20;;;-1.00;61.20;;;;;;5033561;28;20399;-85
2021/03/09 08:15:44;;;;;;;4.50;3.40;;;-0.90;62.00;;;;;;5029887;28;20033;-85
2021/03/09 08:18:21;;;;;;;5.18;3.92;;;-0.80;62.30;;;;;;5033449;28;20108;-86
2021/03/09 08:20:53;;;;;;;6.43;4.18;;;-0.70;61.50;;;;;;5033429;28;20467;-86
2021/03/09 08:23:34;;;;;;;6.85;3.35;;;-0.70;60.70;;;;;;5034339;28;20112;-86
2021/03/09 08:26:29;;;;;;;4.82;3.83;;;-0.70;60.70;;;;;;5034157;28;20032;-85
2021/03/09 08:28:55;;;;;;;3.70;2.92;;;-0.70;60.70;;;;;;5035491;28;20032;-84
2021/03/09 08:31:20;;;;;;;6.95;3.28;;;-0.90;59.70;;;;;;5034012;28;20033;-85
2021/03/09 08:33:52;;;;;;;4.90;2.90;;;-0.90;60.20;;;;;;5033880;28;20044;-85
2021/03/09 08:36:23;;;;;;;6.45;3.28;;;-0.90;60.50;;;;;;5033867;28;20029;-85
2021/03/09 08:39:13;;;;;;;3.75;3.17;;;-0.90;61.10;;;;;;5033822;28;20044;-85
2021/03/09 08:41:42;;;;;;;4.05;3.35;;;-0.70;61.10;;;;;;5035121;28;20063;-85
2021/03/09 08:44:23;;;;;;;4.85;3.05;;;-0.50;60.70;;;;;;5034979;28;20091;-85
2021/03/09 08:47:03;;;;;;;4.03;3.03;;;-0.40;60.00;;;;;;5035375;28;20029;-86
2021/03/09 08:49:40;;;;;;;6.63;3.90;;;-0.50;59.40;;;;;;5049316;28;20659;-85
2021/03/09 08:52:07;;;;;;;4.50;3.45;;;-0.60;59.30;;;;;;5049449;28;20036;-86
2021/03/09 08:54:37;;;;;;;4.43;3.22;;;-0.60;59.60;;;;;;5051353;28;20021;-86
2021/03/09 08:57:24;;;;;;;7.85;3.70;;;-0.50;59.50;;;;;;5044418;28;20032;-86
2021/03/09 08:59:51;;;;;;;6.13;3.40;;;-0.50;57.40;;;;;;5039064;28;20025;-86
2021/03/09 09:02:22;;;;;;;4.32;3.20;;;-0.60;56.60;;;;;;5034344;28;20417;-87
2021/03/09 09:05:06;;;;;;;5.93;3.60;;;-0.70;56.20;;;;;;5033625;28;20088;-86
2021/03/09 09:07:40;;;;;;;5.95;3.58;;;-0.70;55.40;;;;;;5035812;28;20081;-86
2021/03/09 09:10:11;;;;;;;4.75;3.00;;;-0.70;55.70;;;;;;5048226;28;20033;-87
2021/03/09 09:12:38;;;;;;;5.00;3.30;;;-0.60;55.70;;;;;;5039680;28;20029;-86
2021/03/09 09:15:09;;;;;;;4.15;3.25;;;-0.50;55.10;;;;;;5045545;28;20108;-87
2021/03/09 09:17:40;;;;;;;3.97;3.20;;;-0.40;54.70;;;;;;5041152;28;20018;-86
2021/03/09 09:20:10;;;;;;;4.88;3.83;;;-0.20;54.50;;;;;;5035205;28;20077;-87
2021/03/09 09:22:35;;;;;;;4.40;3.38;;;-0.10;53.00;;;;;;5036714;28;20038;-86
2021/03/09 09:25:06;;;;;;;3.80;3.00;;;-0.10;52.70;;;;;;5040322;28;20025;-87
2021/03/09 09:27:51;;;;;;;4.60;3.20;;;-0.10;53.10;;;;;;5034602;28;20052;-88
2021/03/09 09:30:20;;;;;;;5.55;3.85;;;0.00;54.00;;;;;;5040485;28;20073;-87
2021/03/09 09:32:57;;;;;;;8.55;3.85;;;0.20;52.70;;;;;;5039856;28;20103;-87
2021/03/09 09:35:27;;;;;;;3.97;3.47;;;0.20;52.30;;;;;;5040257;28;20337;-88
2021/03/09 09:37:55;;;;;;;7.10;3.78;;;0.20;51.50;;;;;;5036642;28;20095;-87
2021/03/09 09:40:26;;;;;;;5.70;3.42;;;0.30;51.00;;;;;;5043150;28;20025;-88
2021/03/09 09:43:10;;;;;;;6.18;4.38;;;0.30;50.60;;;;;;5039108;28;20078;-86
2021/03/09 09:46:02;;;;;;;3.47;3.17;;;0.40;51.30;;;;;;5037675;28;20036;-89
2021/03/09 09:48:32;;;;;;;5.10;3.30;;;0.70;49.50;;;;;;5038269;28;20161;-88
2021/03/09 09:51:04;;;;;;;6.65;4.00;;;0.80;49.70;;;;;;5035291;28;20060;-89
2021/03/09 09:53:40;;;;;;;5.18;3.80;;;0.90;49.10;;;;;;5035111;28;20029;-87
2021/03/09 09:56:20;;;;;;;5.50;4.07;;;0.90;48.60;;;;;;5043982;28;20103;-87
2021/03/09 09:58:55;;;;;;;8.02;3.95;;;0.90;48.20;;;;;;5037771;28;20033;-88
2021/03/09 10:01:31;;;;;;;5.30;3.90;;;0.70;48.50;;;;;;5037050;28;20068;-90
2021/03/09 10:03:59;;;;;;;4.55;3.58;;;0.40;48.80;;;;;;5040035;28;20436;-89
2021/03/09 10:06:38;;;;;;;7.93;4.30;;;0.40;50.10;;;;;;5039747;28;20117;-88
2021/03/09 10:09:24;;;;;;;4.72;3.03;;;0.50;49.50;;;;;;5041293;28;20029;-86
2021/03/09 10:12:01;;;;;;;5.22;3.80;;;0.50;47.30;;;;;;5034451;28;20056;-87
2021/03/09 10:14:31;;;;;;;5.40;3.63;;;0.30;47.30;;;;;;5038639;28;20111;-86
2021/03/09 10:16:58;;;;;;;4.00;3.10;;;0.20;47.60;;;;;;5035612;28;20025;-88
2021/03/09 10:19:32;;;;;;;4.35;3.25;;;0.10;48.50;;;;;;5041658;28;20136;-88
2021/03/09 10:21:58;;;;;;;5.65;3.50;;;0.10;48.50;;;;;;5035816;28;20435;-89
2021/03/09 10:24:30;;;;;;;11.80;3.58;;;0.30;48.20;;;;;;5038682;28;20044;-89
2021/03/09 10:26:57;;;;;;;4.53;3.17;;;0.30;48.10;;;;;;5047357;28;20029;-90
2021/03/09 10:29:25;;;;;;;4.85;3.47;;;0.40;47.80;;;;;;5042114;28;20039;-88
2021/03/09 10:31:52;;;;;;;3.55;3.17;;;0.50;48.50;;;;;;5045952;28;20030;-87
2021/03/09 10:34:20;;;;;;;6.43;3.38;;;0.60;48.60;;;;;;5041190;28;20128;-88
2021/03/09 10:36:54;;;;;;;5.50;2.85;;;0.80;48.10;;;;;;5046247;28;20033;-88
2021/03/09 10:39:24;;;;;;;5.65;3.63;;;0.90;48.10;;;;;;5040437;28;20028;-91
2021/03/09 10:41:50;;;;;;;5.53;4.32;;;1.00;47.80;;;;;;5048368;28;20090;-88
2021/03/09 10:44:35;;;;;;;5.43;3.15;;;0.90;47.60;;;;;;5052258;28;20439;-88
2021/03/09 10:47:04;;;;;;;6.18;4.03;;;1.00;47.70;;;;;;5045909;28;20363;-88
2021/03/09 10:49:31;;;;;;;5.65;3.47;;;1.00;47.40;;;;;;5035618;28;20094;-88
2021/03/09 10:52:15;;;;;;;4.68;3.53;;;0.90;47.50;;;;;;5052521;28;20155;-89
2021/03/09 10:54:41;;;;;;;7.15;3.83;;;0.60;48.00;;;;;;5046922;28;20028;-87
2021/03/09 10:57:11;;;;;;;5.22;3.33;;;0.40;49.30;;;;;;5040570;28;20116;-88
2021/03/09 10:59:39;;;;;;;8.23;4.03;;;0.50;49.60;;;;;;5039827;28;20036;-88
2021/03/09 11:02:09;;;;;;;4.85;3.63;;;0.60;49.00;;;;;;5043062;28;20384;-87
2021/03/09 11:04:35;;;;;;;7.05;3.63;;;0.70;48.80;;;;;;5041478;28;20045;-87
2021/03/09 11:07:01;;;;;;;4.72;3.15;;;0.80;49.10;;;;;;5047042;28;20094;-88
2021/03/09 11:09:26;;;;;;;5.63;3.50;;;1.00;49.50;;;;;;5038637;28;20027;-86
2021/03/09 11:11:52;;;;;;;4.57;3.85;;;1.20;48.70;;;;;;5046000;28;20029;-86
2021/03/09 11:14:18;;;;;;;5.90;3.50;;;1.20;48.20;;;;;;5046018;28;20064;-87
2021/03/09 11:16:46;;;;;;;3.83;3.20;;;1.20;48.40;;;;;;5034657;28;20030;-86
2021/03/09 11:19:12;;;;;;;4.68;3.72;;;1.30;48.50;;;;;;5046572;28;20044;-87
2021/03/09 11:21:37;;;;;;;5.15;3.65;;;1.40;48.40;;;;;;5048150;28;20033;-87
2021/03/09 11:24:03;;;;;;;14.32;4.35;;;1.50;48.30;;;;;;5041658;28;20025;-88
2021/03/09 11:26:30;;;;;;;5.72;4.40;;;1.50;48.50;;;;;;5055028;28;20029;-89
2021/03/09 11:28:56;;;;;;;5.88;4.20;;;1.40;49.90;;;;;;5054675;28;20434;-90
2021/03/09 11:31:22;;;;;;;5.30;3.33;;;1.30;51.40;;;;;;5053560;28;20029;-89
2021/03/09 11:33:49;;;;;;;5.28;4.13;;;1.20;51.80;;;;;;5055964;28;20037;-89
2021/03/09 11:36:14;;;;;;;5.63;4.28;;;1.20;51.90;;;;;;5043980;28;20037;-87
2021/03/09 11:38:42;;;;;;;5.32;3.97;;;1.20;52.30;;;;;;5038646;28;20029;-87
2021/03/09 11:41:08;;;;;;;5.40;3.85;;;1.10;52.80;;;;;;5049231;28;20029;-89
2021/03/09 11:43:34;;;;;;;6.03;3.75;;;1.10;52.10;;;;;;5037031;28;20040;-89
2021/03/09 11:46:00;;;;;;;8.82;4.07;;;0.90;51.40;;;;;;5034545;28;20031;-88
2021/03/09 11:48:25;;;;;;;7.50;3.90;;;0.90;51.30;;;;;;5047552;28;20107;-89
2021/03/09 11:50:52;;;;;;;5.38;4.07;;;0.70;51.40;;;;;;5050564;28;20025;-89
2021/03/09 11:53:17;;;;;;;5.70;3.47;;;0.50;52.20;;;;;;5049912;28;20036;-89
2021/03/09 11:55:44;;;;;;;5.72;4.35;;;0.40;52.80;;;;;;5050593;28;20032;-89
2021/03/09 11:58:10;;;;;;;4.68;4.03;;;0.50;53.30;;;;;;5052256;28;20033;-88
2021/03/09 12:00:36;;;;;;;6.72;4.13;;;0.40;53.70;;;;;;5044232;28;20069;-89
2021/03/09 12:03:02;;;;;;;4.65;4.00;;;0.30;54.00;;;;;;5053280;28;20399;-89
2021/03/09 12:05:28;;;;;;;5.22;3.72;;;0.20;54.40;;;;;;5048256;28;20037;-88
2021/03/09 12:07:53;;;;;;;5.45;4.22;;;0.30;54.70;;;;;;5053708;28;20067;-88
2021/03/09 12:10:19;;;;;;;4.55;2.97;;;0.50;53.80;;;;;;5054288;28;20079;-89
2021/03/09 12:12:45;;;;;;;4.95;3.92;;;0.80;53.20;;;;;;5035451;28;20103;-88
2021/03/09 12:15:12;;;;;;;8.10;3.65;;;0.90;51.70;;;;;;5047066;28;20044;-87
2021/03/09 12:17:39;;;;;;;5.78;3.45;;;0.90;50.70;;;;;;5043171;28;20029;-89
2021/03/09 12:20:05;;;;;;;6.55;3.70;;;1.00;50.40;;;;;;5045990;28;20476;-90
2021/03/09 12:22:31;;;;;;;7.43;5.38;;;0.80;50.20;;;;;;5054161;28;20029;-88
2021/03/09 12:24:56;;;;;;;5.32;3.45;;;0.80;50.80;;;;;;5038951;28;20037;-89
2021/03/09 12:27:22;;;;;;;4.22;3.58;;;0.80;50.80;;;;;;5044369;28;20507;-88
2021/03/09 12:29:48;;;;;;;7.35;3.75;;;0.90;51.10;;;;;;5046260;28;20025;-88
2021/03/09 12:32:13;;;;;;;5.53;3.60;;;0.90;50.30;;;;;;5042037;28;20059;-88
2021/03/09 12:34:39;;;;;;;7.47;3.20;;;0.80;50.40;;;;;;5045629;28;20087;-87
2021/03/09 12:37:06;;;;;;;5.63;4.35;;;0.80;50.40;;;;;;5053227;28;20457;-88
2021/03/09 12:39:31;;;;;;;6.25;3.75;;;0.70;50.50;;;;;;5053081;28;20480;-87
2021/03/09 12:41:58;;;;;;;5.97;3.85;;;0.40;50.40;;;;;;5049534;28;20052;-88
2021/03/09 12:44:24;;;;;;;10.85;4.10;;;0.40;50.90;;;;;;5034306;28;20025;-88
2021/03/09 12:46:50;;;;;;;7.72;3.97;;;0.30;51.00;;;;;;5042676;28;20124;-88
2021/03/09 12:49:15;;;;;;;5.88;4.05;;;0.20;51.00;;;;;;5048245;28;20036;-88
2021/03/09 12:51:41;;;;;;;6.53;3.53;;;0.30;51.20;;;;;;5054444;28;20175;-88
2021/03/09 12:54:07;;;;;;;3.90;2.97;;;0.30;51.00;;;;;;5039372;28;20125;-88
2021/03/09 12:56:33;;;;;;;5.88;3.92;;;0.50;50.90;;;;;;5043565;28;20341;-89
2021/03/09 12:58:59;;;;;;;5.10;3.60;;;0.60;50.90;;;;;;5037453;28;20063;-89
2021/03/09 13:01:25;;;;;;;5.13;3.83;;;0.70;51.00;;;;;;5036866;28;20040;-88
2021/03/09 13:03:51;;;;;;;5.18;4.00;;;1.00;50.50;;;;;;5038296;28;20041;-88